Kirkland Lake, Canada
Current Conditions -  °F | °C
As of 5:25 PM on Thursday 20 Nov 2014 (Local Time) from CYXR Reporting Station
Broken Clouds Broken Clouds  
Wind Chill:   Ceiling: 15000
Heat Index: 16°   Visibility: 9mi
Dew Point: 10°   Wind: 12mph
Humidity: 79%   Direction: 310°NW
Pressure: 29.74"   Gusts: 17mph
Location:  48.15°N, 80.04°W
Report Text: CYXR 202225Z AUTO 31010G15KT 9SM BKN150 BKN170 M09/M12 A2974 RMK SLP089
Loading
Personal Weather Stations






























Interactive Weather Map New forecast layout! Learn more

10-Day Weather Forecast

Advertisements
Track Severe Weather on mobile